createdAt,value
2023-03-12T00:00:11.442Z,74.04
2023-03-12T00:03:00.845Z,73.99
2023-03-12T00:05:31.595Z,73.94
2023-03-12T00:08:02.461Z,73.63
2023-03-12T00:10:31.221Z,73.62
2023-03-12T00:13:04.015Z,73.23
2023-03-12T00:15:39.164Z,73.08
2023-03-12T00:18:14.567Z,73.01
2023-03-12T00:20:54.181Z,73.10
2023-03-12T00:23:28.172Z,72.88
2023-03-12T00:26:05.013Z,72.96
2023-03-12T00:28:36.609Z,72.66
2023-03-12T00:31:20.298Z,72.54
2023-03-12T00:33:51.016Z,72.24
2023-03-12T00:36:26.090Z,72.00
2023-03-12T00:38:57.683Z,71.91
2023-03-12T00:41:27.770Z,71.50
2023-03-12T00:43:58.058Z,71.48
2023-03-12T00:46:28.125Z,71.56
2023-03-12T00:48:56.752Z,71.32
2023-03-12T00:51:27.909Z,71.07
2023-03-12T00:53:57.733Z,71.00
2023-03-12T00:56:26.820Z,70.93
2023-03-12T00:58:56.608Z,70.80
2023-03-12T01:01:25.736Z,70.72
2023-03-12T01:03:56.148Z,70.63
2023-03-12T01:06:24.943Z,70.74
2023-03-12T01:08:55.771Z,70.89
2023-03-12T01:11:24.564Z,70.95
2023-03-12T01:13:53.461Z,70.94
2023-03-12T01:16:22.795Z,71.05
2023-03-12T01:18:51.958Z,71.06
2023-03-12T01:21:20.941Z,71.14
2023-03-12T01:23:49.515Z,70.94
2023-03-12T01:26:19.357Z,71.05
2023-03-12T01:28:50.376Z,71.03
2023-03-12T01:31:20.187Z,70.96
2023-03-12T01:33:53.507Z,70.87
2023-03-12T01:36:28.428Z,70.74
2023-03-12T01:38:59.506Z,70.62
2023-03-12T01:41:34.809Z,70.86
2023-03-12T01:44:05.128Z,70.79
2023-03-12T01:46:46.766Z,70.59
2023-03-12T01:49:30.156Z,70.70
2023-03-12T01:52:06.223Z,70.75
2023-03-12T01:55:17.139Z,70.65
2023-03-12T01:57:59.194Z,70.71
2023-03-12T02:00:28.209Z,70.54
2023-03-12T02:03:00.850Z,70.54
2023-03-12T02:05:56.064Z,70.44
2023-03-12T02:08:26.588Z,70.28
2023-03-12T02:10:55.272Z,70.10
2023-03-12T02:13:25.306Z,70.23
2023-03-12T02:15:57.892Z,70.26
2023-03-12T02:18:29.110Z,70.43
2023-03-12T02:21:21.164Z,70.37
2023-03-12T02:24:08.673Z,70.35
2023-03-12T02:26:39.631Z,70.32
2023-03-12T02:29:10.966Z,70.27
2023-03-12T02:31:52.798Z,70.36
2023-03-12T02:34:22.872Z,70.37
2023-03-12T02:36:51.454Z,70.29
2023-03-12T02:39:19.961Z,70.38
2023-03-12T02:41:54.167Z,70.40
2023-03-12T02:44:26.228Z,70.37
2023-03-12T02:46:57.262Z,70.02
2023-03-12T02:49:30.143Z,69.91
2023-03-12T02:52:00.895Z,69.79
2023-03-12T02:54:32.165Z,69.64
2023-03-12T02:57:03.893Z,69.61
2023-03-12T02:59:32.894Z,69.44
2023-03-12T03:02:02.599Z,69.43
2023-03-12T03:04:32.199Z,69.27
2023-03-12T03:07:01.904Z,69.05
2023-03-12T03:09:30.487Z,69.04
2023-03-12T03:11:59.997Z,68.99
2023-03-12T03:14:29.391Z,68.91
2023-03-12T03:16:58.292Z,68.62
2023-03-12T03:19:26.985Z,68.48
2023-03-12T03:21:55.667Z,68.42
2023-03-12T03:24:24.442Z,68.42
2023-03-12T03:26:53.233Z,68.39
2023-03-12T03:29:22.132Z,68.38
2023-03-12T03:31:50.721Z,68.30
2023-03-12T03:34:19.505Z,68.14
2023-03-12T03:36:48.192Z,68.18
2023-03-12T03:39:18.808Z,68.01
2023-03-12T03:41:47.807Z,67.98
2023-03-12T03:44:17.929Z,67.87
2023-03-12T03:46:48.064Z,67.71
2023-03-12T03:49:17.565Z,67.49
2023-03-12T03:51:46.565Z,67.46
2023-03-12T03:54:17.082Z,67.29
2023-03-12T03:56:47.882Z,67.13
2023-03-12T03:59:16.680Z,66.97
2023-03-12T04:01:45.827Z,66.77
2023-03-12T04:04:15.815Z,66.73
2023-03-12T04:06:44.386Z,66.52
2023-03-12T04:09:13.108Z,66.51
2023-03-12T04:11:42.790Z,66.33
2023-03-12T04:14:13.618Z,66.37
2023-03-12T04:16:43.342Z,66.37
2023-03-12T04:19:13.365Z,66.20
2023-03-12T04:21:42.879Z,66.24
2023-03-12T04:24:16.433Z,65.96
2023-03-12T04:26:45.250Z,65.99
2023-03-12T04:29:15.588Z,65.88
2023-03-12T04:31:45.855Z,65.71
2023-03-12T04:34:15.224Z,65.58
2023-03-12T04:36:47.141Z,65.74
2023-03-12T04:39:20.704Z,65.56
2023-03-12T04:41:50.988Z,65.36
2023-03-12T04:44:19.678Z,65.53
2023-03-12T04:46:49.492Z,65.24
2023-03-12T04:49:20.865Z,65.26
2023-03-12T04:51:51.620Z,65.27
2023-03-12T04:54:23.439Z,65.17
2023-03-12T04:56:52.240Z,65.15
2023-03-12T04:59:22.655Z,65.18
2023-03-12T05:01:52.045Z,65.16
2023-03-12T05:04:25.558Z,65.15
2023-03-12T05:06:55.163Z,65.15
2023-03-12T05:09:23.937Z,65.08
2023-03-12T05:11:53.561Z,64.95
2023-03-12T05:14:24.964Z,65.04
2023-03-12T05:16:55.949Z,65.08
2023-03-12T05:19:25.157Z,64.70
2023-03-12T05:21:53.839Z,64.58
2023-03-12T05:24:22.886Z,64.68
2023-03-12T05:26:51.824Z,64.56
2023-03-12T05:29:22.682Z,64.36
2023-03-12T05:31:51.468Z,64.24
2023-03-12T05:34:19.922Z,64.12
2023-03-12T05:36:48.206Z,63.88
2023-03-12T05:39:20.064Z,63.98
2023-03-12T05:41:49.159Z,64.16
2023-03-12T05:44:19.201Z,63.98
2023-03-12T05:46:52.251Z,63.85
2023-03-12T05:49:24.634Z,63.83
2023-03-12T05:51:53.526Z,63.52
2023-03-12T05:54:23.016Z,63.30
2023-03-12T05:56:52.842Z,63.22
2023-03-12T05:59:21.929Z,63.18
2023-03-12T06:01:50.653Z,63.28
2023-03-12T06:04:19.082Z,63.22
2023-03-12T06:06:48.106Z,63.18
2023-03-12T06:09:16.676Z,63.01
2023-03-12T06:11:44.951Z,62.89
2023-03-12T06:14:13.636Z,62.88
2023-03-12T06:16:42.190Z,62.59
2023-03-12T06:19:14.416Z,62.50
2023-03-12T06:21:44.796Z,62.48
2023-03-12T06:24:13.705Z,62.40
2023-03-12T06:26:49.206Z,62.50
2023-03-12T06:29:17.725Z,62.27
2023-03-12T06:31:47.370Z,62.17
2023-03-12T06:34:17.001Z,62.21
2023-03-12T06:36:45.530Z,62.01
2023-03-12T06:39:13.814Z,61.67
2023-03-12T06:41:42.438Z,61.83
2023-03-12T06:44:11.081Z,61.81
2023-03-12T06:46:39.382Z,61.37
2023-03-12T06:49:08.148Z,61.55
2023-03-12T06:51:37.224Z,61.29
2023-03-12T06:54:06.055Z,61.48
2023-03-12T06:56:34.508Z,61.25
2023-03-12T06:59:03.087Z,61.43
2023-03-12T07:01:33.044Z,61.37
2023-03-12T07:04:02.807Z,61.08
2023-03-12T07:06:31.590Z,61.21
2023-03-12T07:09:00.111Z,61.47
2023-03-12T07:11:29.105Z,61.26
2023-03-12T07:13:58.092Z,61.32
2023-03-12T07:16:28.586Z,61.14
2023-03-12T07:18:59.366Z,61.04
2023-03-12T07:21:30.244Z,61.05
2023-03-12T07:24:01.156Z,61.28
2023-03-12T07:26:30.425Z,61.17
2023-03-12T07:28:59.309Z,60.78
2023-03-12T07:31:28.524Z,60.59
2023-03-12T07:33:57.252Z,60.51
2023-03-12T07:36:26.336Z,60.46
2023-03-12T07:38:55.500Z,60.62
2023-03-12T07:41:24.485Z,60.44
2023-03-12T07:43:53.837Z,59.24
2023-03-12T07:46:22.397Z,58.77
2023-03-12T07:48:51.018Z,59.33
2023-03-12T07:51:19.621Z,59.17
2023-03-12T07:53:49.067Z,58.63
2023-03-12T07:56:17.910Z,57.97
2023-03-12T07:58:47.395Z,58.28
2023-03-12T08:01:17.486Z,57.99
2023-03-12T08:03:46.639Z,58.36
2023-03-12T08:06:15.771Z,58.18
2023-03-12T08:08:46.552Z,58.57
2023-03-12T08:11:17.719Z,57.96
2023-03-12T08:13:46.592Z,57.88
2023-03-12T08:16:15.917Z,58.12
2023-03-12T08:18:44.700Z,58.11
2023-03-12T08:21:16.456Z,58.32
2023-03-12T08:23:45.247Z,58.56
2023-03-12T08:26:14.646Z,58.17
2023-03-12T08:28:43.337Z,57.89
2023-03-12T08:31:12.875Z,57.98
2023-03-12T08:33:43.866Z,58.79
2023-03-12T08:36:13.386Z,58.92
2023-03-12T08:38:42.377Z,58.45
2023-03-12T08:41:11.272Z,58.00
2023-03-12T08:43:40.019Z,58.93
2023-03-12T08:46:12.182Z,58.47
2023-03-12T08:48:41.174Z,58.36
2023-03-12T08:51:10.694Z,58.69
2023-03-12T08:53:39.788Z,58.61
2023-03-12T08:56:08.982Z,58.46
2023-03-12T08:58:38.266Z,58.98
2023-03-12T09:01:14.092Z,59.29
2023-03-12T09:03:46.667Z,58.69
2023-03-12T09:06:17.901Z,58.76
2023-03-12T09:08:52.262Z,59.29
2023-03-12T09:11:22.534Z,58.39
2023-03-12T09:14:28.040Z,58.65
2023-03-12T09:16:47.308Z,58.57
2023-03-12T09:19:17.914Z,58.81
2023-03-12T09:21:48.850Z,58.58
2023-03-12T09:24:18.456Z,58.15
2023-03-12T09:26:48.368Z,57.85
2023-03-12T09:29:17.355Z,58.30
2023-03-12T09:31:48.455Z,58.04
2023-03-12T09:34:17.081Z,57.60
2023-03-12T09:36:47.569Z,56.69
2023-03-12T09:39:17.722Z,56.83
2023-03-12T09:41:54.941Z,56.58
2023-03-12T09:44:42.366Z,57.22
2023-03-12T09:47:43.223Z,57.18
2023-03-12T09:50:16.148Z,56.70
2023-03-12T09:52:54.967Z,56.57
2023-03-12T09:55:28.918Z,55.65
2023-03-12T09:58:02.888Z,55.41
2023-03-12T10:00:38.600Z,55.89
2023-03-12T10:03:20.096Z,55.21
2023-03-12T10:06:03.119Z,55.18
2023-03-12T10:08:41.387Z,55.46
2023-03-12T10:11:24.449Z,55.50
2023-03-12T10:14:11.023Z,55.80
2023-03-12T10:17:29.854Z,55.32
2023-03-12T10:20:30.470Z,55.58
2023-03-12T10:23:14.504Z,54.83
2023-03-12T10:26:05.929Z,53.50
2023-03-12T10:28:50.599Z,53.65
2023-03-12T10:31:29.843Z,54.73
2023-03-12T10:34:01.930Z,54.00
2023-03-12T10:36:40.116Z,53.73
2023-03-12T10:39:18.042Z,55.10
2023-03-12T10:41:49.623Z,55.23
2023-03-12T10:44:25.812Z,53.67
2023-03-12T10:47:24.815Z,53.61
2023-03-12T10:49:53.792Z,53.09
2023-03-12T10:52:23.906Z,54.16
2023-03-12T10:54:53.852Z,53.02
2023-03-12T10:57:38.803Z,53.28
2023-03-12T11:00:12.646Z,53.52
2023-03-12T11:02:46.216Z,53.41
2023-03-12T11:05:34.786Z,53.38
2023-03-12T11:08:22.341Z,52.55
2023-03-12T11:10:53.504Z,51.68
2023-03-12T11:13:41.600Z,51.40
2023-03-12T11:16:17.876Z,49.31
2023-03-12T11:19:00.285Z,49.28
2023-03-12T11:21:33.744Z,49.19
2023-03-12T11:24:08.574Z,49.89
2023-03-12T11:26:50.898Z,50.31
2023-03-12T11:29:30.713Z,50.64
2023-03-12T11:32:11.436Z,49.81
2023-03-12T11:34:43.540Z,50.44
2023-03-12T11:37:26.597Z,49.61
2023-03-12T11:40:13.423Z,49.03
2023-03-12T11:43:14.823Z,48.56
2023-03-12T11:46:19.827Z,48.63
2023-03-12T11:49:19.809Z,49.11
2023-03-12T11:52:03.915Z,49.64
2023-03-12T11:54:41.327Z,50.13
2023-03-12T11:57:43.233Z,50.18
2023-03-12T12:00:17.178Z,50.15
2023-03-12T12:03:08.635Z,49.08
2023-03-12T12:05:50.753Z,48.21
2023-03-12T12:08:29.385Z,48.68
2023-03-12T12:11:23.421Z,49.99
2023-03-12T12:14:13.830Z,49.09
2023-03-12T12:17:01.815Z,48.39
2023-03-12T12:20:10.147Z,48.74
2023-03-12T12:23:10.829Z,49.41
2023-03-12T12:25:59.107Z,47.89
2023-03-12T12:28:55.102Z,47.60
2023-03-12T12:31:31.062Z,47.79
2023-03-12T12:34:29.656Z,48.56
2023-03-12T12:37:31.591Z,48.60
2023-03-12T12:40:31.677Z,47.40
2023-03-12T12:43:27.080Z,48.02
2023-03-12T12:46:01.233Z,47.71
2023-03-12T12:48:37.034Z,47.34
2023-03-12T12:51:08.999Z,47.04
2023-03-12T12:54:09.241Z,46.87
2023-03-12T12:57:01.881Z,46.76
2023-03-12T12:59:41.034Z,45.66
2023-03-12T13:02:22.211Z,45.07
2023-03-12T13:04:56.164Z,45.19
2023-03-12T13:07:27.932Z,45.23
2023-03-12T13:09:58.826Z,46.21
2023-03-12T13:12:47.796Z,45.39
2023-03-12T13:15:29.303Z,45.60
2023-03-12T13:18:10.180Z,46.06
2023-03-12T13:20:54.630Z,45.75
2023-03-12T13:23:26.574Z,44.88
2023-03-12T13:26:01.797Z,45.32
2023-03-12T13:28:36.399Z,46.06
2023-03-12T13:31:25.960Z,45.90
2023-03-12T13:33:59.827Z,44.49
2023-03-12T13:36:33.852Z,45.59
2023-03-12T13:39:08.566Z,45.27
2023-03-12T13:41:45.891Z,44.46
2023-03-12T13:44:27.071Z,44.87
2023-03-12T13:47:23.210Z,44.99
2023-03-12T13:49:59.174Z,45.06
2023-03-12T13:52:47.307Z,45.62
2023-03-12T13:55:33.072Z,45.47
2023-03-12T13:58:09.545Z,45.53
2023-03-12T14:00:55.347Z,45.42
2023-03-12T14:03:49.840Z,45.20
2023-03-12T14:06:21.712Z,45.21
2023-03-12T14:08:58.084Z,44.50
2023-03-12T14:11:34.244Z,44.45
2023-03-12T14:14:18.305Z,45.56
2023-03-12T14:16:56.486Z,45.38
2023-03-12T14:19:28.865Z,45.03
2023-03-12T14:22:07.726Z,44.64
2023-03-12T14:24:41.977Z,45.31
2023-03-12T14:27:19.108Z,45.36
2023-03-12T14:30:10.848Z,45.33
2023-03-12T14:32:40.872Z,45.74
2023-03-12T14:35:15.732Z,46.06
2023-03-12T14:37:54.416Z,45.81
2023-03-12T14:40:39.918Z,45.81
2023-03-12T14:43:27.177Z,46.33
2023-03-12T14:45:59.086Z,45.96
2023-03-12T14:48:34.513Z,45.72
2023-03-12T14:51:06.817Z,45.80
2023-03-12T14:53:42.188Z,46.47
2023-03-12T14:56:35.612Z,46.30
2023-03-12T14:59:31.447Z,47.38
2023-03-12T15:02:21.269Z,47.58
2023-03-12T15:04:56.326Z,46.67
2023-03-12T15:07:33.821Z,46.44
2023-03-12T15:10:06.532Z,47.23
2023-03-12T15:12:38.019Z,47.60
2023-03-12T15:15:09.973Z,48.10
2023-03-12T15:17:39.183Z,47.22
2023-03-12T15:20:15.121Z,47.20
2023-03-12T15:22:44.938Z,47.55
2023-03-12T15:25:34.421Z,48.12
2023-03-12T15:28:10.886Z,48.10
2023-03-12T15:30:40.910Z,48.08
2023-03-12T15:33:15.839Z,47.57
2023-03-12T15:36:24.054Z,46.42
2023-03-12T15:39:02.568Z,46.72
2023-03-12T15:41:51.732Z,47.26
2023-03-12T15:44:26.393Z,47.23
2023-03-12T15:47:11.011Z,46.58
2023-03-12T15:49:40.264Z,47.03
2023-03-12T15:52:24.924Z,46.95
2023-03-12T15:55:26.974Z,46.98
2023-03-12T15:57:57.410Z,47.48
2023-03-12T16:00:42.080Z,47.50
2023-03-12T16:03:18.644Z,47.90
2023-03-12T16:05:50.503Z,47.97
2023-03-12T16:08:29.845Z,48.24
2023-03-12T16:10:58.645Z,48.26
2023-03-12T16:13:31.499Z,48.45
2023-03-12T16:16:00.318Z,48.34
2023-03-12T16:18:28.742Z,48.01
2023-03-12T16:20:57.495Z,48.26
2023-03-12T16:23:26.388Z,48.34
2023-03-12T16:25:57.061Z,48.59
2023-03-12T16:28:26.724Z,49.05
2023-03-12T16:30:55.219Z,49.13
2023-03-12T16:33:25.028Z,49.38
2023-03-12T16:35:54.637Z,49.70
2023-03-12T16:38:24.153Z,50.05
2023-03-12T16:40:53.875Z,50.29
2023-03-12T16:43:25.406Z,50.66
2023-03-12T16:45:54.532Z,50.95
2023-03-12T16:48:26.873Z,51.08
2023-03-12T16:50:58.015Z,51.17
2023-03-12T16:53:27.703Z,50.96
2023-03-12T16:55:59.963Z,51.08
2023-03-12T16:58:29.574Z,50.92
2023-03-12T17:01:00.151Z,50.89
2023-03-12T17:03:38.386Z,51.02
2023-03-12T17:06:08.332Z,51.31
2023-03-12T17:08:37.510Z,51.21
2023-03-12T17:11:20.609Z,51.59
2023-03-12T17:14:00.550Z,51.67
2023-03-12T17:16:29.901Z,51.02
2023-03-12T17:18:58.660Z,50.61
2023-03-12T17:21:27.140Z,50.58
2023-03-12T17:23:56.690Z,50.24
2023-03-12T17:26:25.586Z,50.49
2023-03-12T17:28:54.231Z,50.53
2023-03-12T17:31:25.081Z,50.78
2023-03-12T17:33:54.278Z,51.06
2023-03-12T17:36:23.731Z,51.15
2023-03-12T17:38:53.110Z,51.21
2023-03-12T17:41:26.799Z,51.47
2023-03-12T17:43:58.961Z,51.45
2023-03-12T17:46:29.452Z,51.62
2023-03-12T17:48:58.396Z,51.67
2023-03-12T17:51:27.176Z,51.98
2023-03-12T17:53:57.000Z,52.42
2023-03-12T17:56:26.357Z,52.75
2023-03-12T17:58:55.506Z,52.93
2023-03-12T18:01:26.650Z,53.06
2023-03-12T18:03:55.846Z,53.22
2023-03-12T18:06:25.477Z,53.10
2023-03-12T18:08:54.350Z,53.09
2023-03-12T18:11:23.976Z,53.23
2023-03-12T18:13:53.058Z,53.31
2023-03-12T18:16:24.142Z,53.51
2023-03-12T18:18:53.189Z,53.79
2023-03-12T18:21:22.026Z,54.24
2023-03-12T18:23:51.194Z,54.33
2023-03-12T18:26:22.368Z,54.36
2023-03-12T18:28:54.218Z,54.64
2023-03-12T18:31:23.784Z,54.77
2023-03-12T18:33:53.724Z,54.79
2023-03-12T18:36:22.840Z,54.83
2023-03-12T18:38:54.086Z,54.64
2023-03-12T18:41:22.868Z,54.76
2023-03-12T18:43:53.971Z,54.62
2023-03-12T18:46:24.405Z,54.65
2023-03-12T18:48:53.980Z,54.36
2023-03-12T18:51:23.271Z,54.10
2023-03-12T18:53:52.154Z,54.19
2023-03-12T18:56:23.943Z,54.11
2023-03-12T18:58:53.486Z,54.07
2023-03-12T19:01:23.094Z,54.05
2023-03-12T19:03:53.206Z,54.24
2023-03-12T19:06:23.181Z,54.31
2023-03-12T19:08:53.168Z,54.60
2023-03-12T19:11:23.213Z,54.56
2023-03-12T19:13:54.022Z,54.58
2023-03-12T19:16:25.002Z,54.60
2023-03-12T19:18:55.833Z,54.59
2023-03-12T19:21:26.572Z,54.61
2023-03-12T19:23:58.398Z,54.87
2023-03-12T19:26:27.858Z,54.80
2023-03-12T19:28:58.202Z,54.58
2023-03-12T19:31:28.815Z,54.79
2023-03-12T19:33:59.972Z,54.71
2023-03-12T19:36:30.605Z,54.70
2023-03-12T19:39:02.417Z,54.63
2023-03-12T19:41:36.765Z,54.78
2023-03-12T19:44:07.126Z,54.82
2023-03-12T19:46:39.495Z,54.90
2023-03-12T19:49:08.542Z,54.94
2023-03-12T19:51:40.434Z,55.02
2023-03-12T19:54:10.055Z,55.15
2023-03-12T19:56:40.411Z,55.50
2023-03-12T19:59:10.627Z,55.80
2023-03-12T20:01:43.392Z,55.94
2023-03-12T20:04:13.677Z,55.98
2023-03-12T20:06:43.225Z,56.12
2023-03-12T20:09:12.984Z,56.11
2023-03-12T20:11:43.690Z,55.93
2023-03-12T20:14:13.369Z,56.02
2023-03-12T20:16:42.735Z,56.04
2023-03-12T20:19:12.071Z,55.97
2023-03-12T20:21:42.181Z,55.98
2023-03-12T20:24:14.278Z,55.97
2023-03-12T20:26:43.393Z,56.27
2023-03-12T20:29:13.112Z,56.75
2023-03-12T20:31:43.730Z,57.21
2023-03-12T20:34:14.064Z,57.78
2023-03-12T20:36:45.662Z,58.27
2023-03-12T20:39:16.295Z,58.63
2023-03-12T20:41:47.025Z,58.74
2023-03-12T20:44:17.897Z,58.87
2023-03-12T20:46:49.196Z,59.24
2023-03-12T20:49:21.059Z,59.68
2023-03-12T20:51:50.693Z,59.92
2023-03-12T20:54:22.880Z,60.15
2023-03-12T20:56:52.335Z,60.19
2023-03-12T20:59:25.738Z,60.49
2023-03-12T21:01:56.111Z,60.85
2023-03-12T21:04:26.020Z,61.33
2023-03-12T21:06:56.948Z,61.70
2023-03-12T21:09:28.246Z,61.94
2023-03-12T21:11:59.424Z,62.24
2023-03-12T21:14:29.435Z,62.70
2023-03-12T21:16:59.496Z,62.95
2023-03-12T21:19:30.601Z,63.04
2023-03-12T21:22:00.584Z,63.21
2023-03-12T21:24:34.092Z,63.35
2023-03-12T21:27:03.639Z,63.42
2023-03-12T21:29:33.241Z,63.31
2023-03-12T21:32:03.188Z,63.32
2023-03-12T21:34:34.227Z,63.47
2023-03-12T21:37:04.972Z,63.67
2023-03-12T21:39:35.765Z,63.84
2023-03-12T21:42:04.889Z,64.20
2023-03-12T21:44:38.066Z,64.19
2023-03-12T21:47:07.279Z,64.29
2023-03-12T21:49:36.562Z,64.22
2023-03-12T21:52:05.585Z,64.35
2023-03-12T21:54:35.592Z,64.21
2023-03-12T21:57:05.420Z,64.34
2023-03-12T21:59:34.296Z,64.53
2023-03-12T22:02:02.781Z,64.50
2023-03-12T22:04:32.327Z,64.63
2023-03-12T22:07:00.876Z,64.53
2023-03-12T22:09:38.908Z,64.56
2023-03-12T22:12:07.787Z,64.78
2023-03-12T22:14:36.145Z,64.89
2023-03-12T22:17:04.675Z,64.94
2023-03-12T22:19:33.561Z,65.11
2023-03-12T22:22:02.132Z,65.14
2023-03-12T22:24:30.904Z,65.24
2023-03-12T22:26:59.285Z,65.24
2023-03-12T22:29:27.986Z,65.29
2023-03-12T22:31:56.564Z,65.20
2023-03-12T22:34:24.938Z,65.23
2023-03-12T22:36:53.229Z,65.26
2023-03-12T22:39:21.500Z,65.30
2023-03-12T22:41:53.878Z,65.37
2023-03-12T22:44:22.484Z,65.25
2023-03-12T22:46:52.137Z,65.24
2023-03-12T22:49:20.458Z,65.28
2023-03-12T22:51:48.628Z,65.41
2023-03-12T22:54:17.057Z,65.49
2023-03-12T22:56:45.505Z,65.52
2023-03-12T22:59:13.985Z,65.63
2023-03-12T23:01:42.504Z,65.56
2023-03-12T23:04:11.104Z,65.52
2023-03-12T23:06:40.140Z,65.59
2023-03-12T23:09:08.523Z,65.56
2023-03-12T23:11:36.839Z,65.59
2023-03-12T23:14:05.398Z,65.67
2023-03-12T23:16:34.054Z,65.84
2023-03-12T23:19:02.704Z,65.84
2023-03-12T23:21:31.172Z,65.98
2023-03-12T23:24:00.058Z,66.18
2023-03-12T23:26:28.939Z,66.23
2023-03-12T23:28:59.027Z,66.36
2023-03-12T23:31:28.789Z,66.26
2023-03-12T23:33:58.626Z,66.33
2023-03-12T23:36:27.492Z,66.35
2023-03-12T23:38:56.344Z,66.35
2023-03-12T23:41:31.002Z,66.15
2023-03-12T23:43:59.799Z,66.16
2023-03-12T23:46:28.494Z,66.07
2023-03-12T23:48:57.592Z,66.12
2023-03-12T23:51:29.570Z,66.17
2023-03-12T23:54:00.620Z,66.23
2023-03-12T23:56:34.015Z,66.17
2023-03-12T23:59:02.885Z,66.18
